createdAt,value
2022-12-25T00:00:52.679Z,3.40
2022-12-25T00:04:19.564Z,4.93
2022-12-25T00:07:19.620Z,4.53
2022-12-25T00:10:31.624Z,3.60
2022-12-25T00:13:31.600Z,3.40
2022-12-25T00:16:57.637Z,5.23
2022-12-25T00:20:00.628Z,4.50
2022-12-25T00:23:15.621Z,4.90
2022-12-25T00:26:28.599Z,7.40
2022-12-25T00:29:40.701Z,5.50
2022-12-25T00:33:05.731Z,4.47
2022-12-25T00:36:33.619Z,4.10
2022-12-25T00:39:42.671Z,5.37
2022-12-25T00:42:55.649Z,5.57
2022-12-25T00:45:55.788Z,4.65
2022-12-25T00:49:21.749Z,10.50
2022-12-25T00:52:33.669Z,6.77
2022-12-25T00:55:45.776Z,6.67
2022-12-25T00:58:57.769Z,5.03
2022-12-25T01:02:37.802Z,5.43
2022-12-25T01:05:51.782Z,4.07
2022-12-25T01:09:13.100Z,12.63
2022-12-25T01:12:12.825Z,10.53
2022-12-25T01:15:36.831Z,4.57
2022-12-25T01:18:48.800Z,8.20
2022-12-25T01:22:13.828Z,4.03
2022-12-25T01:25:25.886Z,5.10
2022-12-25T01:28:38.881Z,5.73
2022-12-25T01:31:38.869Z,12.00
2022-12-25T01:35:05.856Z,5.47
2022-12-25T01:38:19.887Z,6.87
2022-12-25T01:41:46.811Z,18.03
2022-12-25T01:45:05.899Z,7.73
2022-12-25T01:48:30.921Z,13.60
2022-12-25T01:51:42.892Z,14.75
2022-12-25T01:55:08.900Z,12.10
2022-12-25T01:58:20.847Z,11.47
2022-12-25T02:01:33.951Z,13.23
2022-12-25T02:04:58.877Z,13.57
2022-12-25T02:08:11.052Z,12.03
2022-12-25T02:11:38.047Z,6.25
2022-12-25T02:14:49.940Z,11.10
2022-12-25T02:18:18.032Z,7.37
2022-12-25T02:21:39.081Z,6.13
2022-12-25T02:25:08.086Z,4.73
2022-12-25T02:28:23.981Z,9.05
2022-12-25T02:31:51.120Z,10.85
2022-12-25T02:35:03.073Z,16.40
2022-12-25T02:38:27.085Z,9.13
2022-12-25T02:41:26.268Z,5.70
2022-12-25T02:44:58.932Z,18.73
2022-12-25T02:48:16.443Z,16.95
2022-12-25T02:51:45.876Z,17.60
2022-12-25T02:55:15.847Z,13.83
2022-12-25T02:58:48.884Z,13.97
2022-12-25T03:02:07.710Z,12.20
2022-12-25T03:05:38.078Z,13.97
2022-12-25T03:08:50.100Z,10.70
2022-12-25T03:12:02.269Z,12.27
2022-12-25T03:15:20.036Z,13.43
2022-12-25T03:18:46.204Z,10.83
2022-12-25T03:21:52.146Z,12.77
2022-12-25T03:25:09.706Z,12.87
2022-12-25T03:28:22.227Z,18.15
2022-12-25T03:31:47.353Z,12.43
2022-12-25T03:35:09.889Z,10.40
2022-12-25T03:38:47.326Z,12.87
2022-12-25T03:42:05.826Z,11.73
2022-12-25T03:45:35.566Z,11.10
2022-12-25T03:48:52.871Z,13.37
2022-12-25T03:52:27.181Z,17.00
2022-12-25T03:55:45.148Z,17.67
2022-12-25T03:59:23.867Z,14.43
2022-12-25T04:02:40.941Z,15.37
2022-12-25T04:05:59.351Z,16.85
2022-12-25T04:09:21.761Z,19.37
2022-12-25T04:12:40.427Z,15.85
2022-12-25T04:15:58.076Z,16.60
2022-12-25T04:19:15.993Z,14.50
2022-12-25T04:22:22.299Z,19.00
2022-12-25T04:25:53.762Z,22.43
2022-12-25T04:29:00.189Z,14.45
2022-12-25T04:32:18.329Z,17.40
2022-12-25T04:35:35.784Z,17.75
2022-12-25T04:39:00.423Z,20.53
2022-12-25T04:42:14.478Z,19.73
2022-12-25T04:45:26.423Z,18.90
2022-12-25T04:48:26.461Z,14.10
2022-12-25T04:51:50.486Z,17.25
2022-12-25T04:54:50.461Z,23.47
2022-12-25T04:58:16.513Z,19.67
2022-12-25T05:01:28.601Z,17.57
2022-12-25T05:04:52.498Z,10.97
2022-12-25T05:07:52.515Z,17.43
2022-12-25T05:11:05.595Z,18.47
2022-12-25T05:14:23.548Z,15.47
2022-12-25T05:17:35.551Z,17.43
2022-12-25T05:20:47.523Z,15.60
2022-12-25T05:24:13.571Z,11.87
2022-12-25T05:27:13.565Z,16.27
2022-12-25T05:30:39.548Z,12.50
2022-12-25T05:33:39.574Z,17.53
2022-12-25T05:36:52.607Z,17.77
2022-12-25T05:39:52.615Z,14.90
2022-12-25T05:43:04.616Z,14.80
2022-12-25T05:46:19.692Z,20.07
2022-12-25T05:49:32.696Z,15.20
2022-12-25T05:52:32.648Z,20.83
2022-12-25T05:55:58.683Z,16.30
2022-12-25T05:58:58.725Z,15.13
2022-12-25T06:02:24.824Z,24.23
2022-12-25T06:05:36.672Z,24.23
2022-12-25T06:08:36.729Z,18.85
2022-12-25T06:11:49.645Z,14.95
2022-12-25T06:14:49.730Z,10.80
2022-12-25T06:18:15.720Z,14.37
2022-12-25T06:21:30.685Z,27.73
2022-12-25T06:24:42.683Z,14.27
2022-12-25T06:27:42.780Z,17.77
2022-12-25T06:30:54.727Z,18.07
2022-12-25T06:34:08.793Z,12.60
2022-12-25T06:37:32.819Z,16.27
2022-12-25T06:40:32.811Z,16.97
2022-12-25T06:43:44.766Z,9.97
2022-12-25T06:46:56.789Z,11.83
2022-12-25T06:50:22.794Z,14.20
2022-12-25T06:53:22.883Z,17.50
2022-12-25T06:56:49.870Z,11.77
2022-12-25T06:59:54.931Z,13.33
2022-12-25T07:03:13.839Z,14.93
2022-12-25T07:06:27.871Z,13.53
2022-12-25T07:09:52.090Z,12.97
2022-12-25T07:12:51.900Z,16.73
2022-12-25T07:16:20.955Z,12.50
2022-12-25T07:19:35.286Z,13.67
2022-12-25T07:22:59.899Z,19.00
2022-12-25T07:26:17.990Z,10.80
2022-12-25T07:29:41.918Z,12.60
2022-12-25T07:32:55.036Z,7.93
2022-12-25T07:36:06.948Z,12.90
2022-12-25T07:39:19.999Z,13.00
2022-12-25T07:42:32.996Z,16.00
2022-12-25T07:45:33.026Z,11.40
2022-12-25T07:48:44.960Z,10.03
2022-12-25T07:51:45.033Z,7.90
2022-12-25T07:55:13.974Z,8.57
2022-12-25T07:58:18.510Z,8.90
2022-12-25T08:01:38.110Z,8.23
2022-12-25T08:05:05.027Z,7.23
2022-12-25T08:08:16.997Z,14.10
2022-12-25T08:11:43.124Z,12.87
2022-12-25T08:14:46.019Z,8.93
2022-12-25T08:17:58.124Z,9.23
2022-12-25T08:20:58.102Z,13.07
2022-12-25T08:24:13.109Z,8.37
2022-12-25T08:27:27.101Z,7.73
2022-12-25T08:30:39.199Z,9.10
2022-12-25T08:33:39.199Z,12.80
2022-12-25T08:37:03.111Z,11.73
2022-12-25T08:40:15.192Z,10.00
2022-12-25T08:43:45.241Z,12.27
2022-12-25T08:46:57.221Z,8.97
2022-12-25T08:50:09.270Z,10.03
2022-12-25T08:53:09.228Z,12.50
2022-12-25T08:56:33.202Z,6.80
2022-12-25T08:59:47.244Z,8.33
2022-12-25T09:02:59.361Z,13.10
2022-12-25T09:05:59.253Z,8.80
2022-12-25T09:09:11.239Z,10.23
2022-12-25T09:12:11.286Z,8.70
2022-12-25T09:15:40.363Z,8.15
2022-12-25T09:18:40.280Z,10.17
2022-12-25T09:21:52.278Z,10.20
2022-12-25T09:24:56.291Z,9.40
2022-12-25T09:28:20.286Z,10.37
2022-12-25T09:31:34.299Z,9.65
2022-12-25T09:34:46.538Z,9.67
2022-12-25T09:37:46.365Z,12.90
2022-12-25T09:41:10.353Z,10.97
2022-12-25T09:44:22.453Z,8.80
2022-12-25T09:47:48.354Z,11.57
2022-12-25T09:51:03.361Z,7.73
2022-12-25T09:54:31.400Z,10.87
2022-12-25T09:57:31.469Z,12.00
2022-12-25T10:00:55.441Z,9.90
2022-12-25T10:04:28.474Z,9.50
2022-12-25T10:07:41.475Z,8.70
2022-12-25T10:11:09.432Z,12.40
2022-12-25T10:14:27.452Z,7.63
2022-12-25T10:17:53.490Z,6.17
2022-12-25T10:21:12.761Z,6.50
2022-12-25T10:24:34.527Z,8.93
2022-12-25T10:27:47.551Z,8.50
2022-12-25T10:31:11.543Z,5.60
2022-12-25T10:34:23.584Z,7.80
2022-12-25T10:37:53.512Z,5.00
2022-12-25T10:41:05.587Z,6.37
2022-12-25T10:44:37.555Z,7.00
2022-12-25T10:47:54.962Z,6.97
2022-12-25T10:51:13.611Z,7.73
2022-12-25T10:54:27.572Z,9.63
2022-12-25T10:57:42.608Z,8.03
2022-12-25T11:00:54.572Z,8.67
2022-12-25T11:04:07.643Z,10.17
2022-12-25T11:07:21.581Z,8.03
2022-12-25T11:10:48.613Z,6.03
2022-12-25T11:14:00.663Z,6.30
2022-12-25T11:17:31.681Z,10.47
2022-12-25T11:20:47.113Z,9.20
2022-12-25T11:24:08.671Z,10.10
2022-12-25T11:27:22.680Z,6.65
2022-12-25T11:30:34.642Z,4.60
2022-12-25T11:33:46.658Z,5.37
2022-12-25T11:37:10.749Z,5.63
2022-12-25T11:40:22.758Z,7.20
2022-12-25T11:43:48.705Z,5.50
2022-12-25T11:47:00.849Z,5.70
2022-12-25T11:50:24.715Z,8.07
2022-12-25T11:53:36.769Z,5.77
2022-12-25T11:57:00.803Z,6.20
2022-12-25T12:00:14.783Z,6.93
2022-12-25T12:03:38.954Z,9.85
2022-12-25T12:06:50.766Z,6.90
2022-12-25T12:10:18.783Z,4.67
2022-12-25T12:13:34.815Z,6.23
2022-12-25T12:17:00.807Z,8.87
2022-12-25T12:20:00.878Z,4.40
2022-12-25T12:23:24.846Z,7.15
2022-12-25T12:26:41.846Z,6.20
2022-12-25T12:30:05.876Z,6.17
2022-12-25T12:33:19.936Z,5.20
2022-12-25T12:36:43.889Z,7.17
2022-12-25T12:39:56.865Z,4.33
2022-12-25T12:43:20.910Z,8.93
2022-12-25T12:46:33.032Z,5.27
2022-12-25T12:49:57.994Z,4.55
2022-12-25T12:52:57.971Z,7.63
2022-12-25T12:56:34.977Z,5.57
2022-12-25T12:59:47.010Z,5.60
2022-12-25T13:03:21.003Z,6.10
2022-12-25T13:06:34.941Z,4.37
2022-12-25T13:10:01.021Z,7.87
2022-12-25T13:13:15.005Z,6.30
2022-12-25T13:16:43.099Z,7.00
2022-12-25T13:19:55.001Z,4.27
2022-12-25T13:23:21.069Z,5.37
2022-12-25T13:26:37.054Z,5.30
2022-12-25T13:30:01.111Z,8.90
2022-12-25T13:33:01.127Z,3.70
2022-12-25T13:36:13.218Z,6.43
2022-12-25T13:39:27.037Z,7.80
2022-12-25T13:42:52.142Z,4.23
2022-12-25T13:45:52.229Z,4.45
2022-12-25T13:49:20.133Z,4.37
2022-12-25T13:52:35.091Z,6.30
2022-12-25T13:56:01.154Z,6.77
2022-12-25T13:59:25.141Z,7.10
2022-12-25T14:02:49.267Z,4.10
2022-12-25T14:06:20.143Z,8.85
2022-12-25T14:09:32.214Z,4.87
2022-12-25T14:12:58.136Z,4.97
2022-12-25T14:16:10.306Z,4.57
2022-12-25T14:19:45.226Z,5.27
2022-12-25T14:22:45.240Z,9.57
2022-12-25T14:26:10.188Z,5.15
2022-12-25T14:29:28.376Z,7.30
2022-12-25T14:32:48.243Z,6.57
2022-12-25T14:35:48.263Z,5.37
2022-12-25T14:39:20.313Z,4.70
2022-12-25T14:42:36.312Z,3.93
2022-12-25T14:46:05.347Z,4.80
2022-12-25T14:49:23.259Z,3.63
2022-12-25T14:52:50.264Z,7.10
2022-12-25T14:56:02.340Z,4.97
2022-12-25T14:59:14.313Z,4.80
2022-12-25T15:02:28.435Z,5.27
2022-12-25T15:05:58.367Z,5.10
2022-12-25T15:09:19.445Z,8.50
2022-12-25T15:12:31.430Z,4.20
2022-12-25T15:15:43.481Z,5.57
2022-12-25T15:19:10.346Z,4.63
2022-12-25T15:22:22.395Z,4.43
2022-12-25T15:25:34.371Z,3.93
2022-12-25T15:28:34.447Z,3.80
2022-12-25T15:31:58.380Z,4.37
2022-12-25T15:35:12.565Z,5.90
2022-12-25T15:38:37.523Z,4.17
2022-12-25T15:41:58.374Z,4.33
2022-12-25T15:45:11.434Z,9.33
2022-12-25T15:48:11.472Z,5.63
2022-12-25T15:51:37.521Z,4.40
2022-12-25T15:54:37.475Z,4.53
2022-12-25T15:58:02.547Z,4.33
2022-12-25T16:01:15.605Z,5.20
2022-12-25T16:04:27.547Z,4.40
2022-12-25T16:07:41.591Z,5.20
2022-12-25T16:10:53.536Z,5.50
2022-12-25T16:13:53.597Z,4.77
2022-12-25T16:17:06.519Z,6.83
2022-12-25T16:20:06.779Z,6.80
2022-12-25T16:23:35.602Z,6.10
2022-12-25T16:26:38.614Z,6.40
2022-12-25T16:29:51.631Z,5.53
2022-12-25T16:32:51.567Z,5.07
2022-12-25T16:36:03.683Z,5.97
2022-12-25T16:39:17.626Z,5.20
2022-12-25T16:42:29.725Z,5.73
2022-12-25T16:45:29.682Z,5.70
2022-12-25T16:48:42.660Z,5.80
2022-12-25T16:51:45.682Z,7.95
2022-12-25T16:55:11.704Z,5.80
2022-12-25T16:58:24.724Z,5.30
2022-12-25T17:01:48.771Z,5.57
2022-12-25T17:04:49.740Z,6.63
2022-12-25T17:08:13.701Z,6.55
2022-12-25T17:11:31.699Z,7.60
2022-12-25T17:14:44.195Z,5.87
2022-12-25T17:17:44.744Z,4.63
2022-12-25T17:21:13.766Z,5.93
2022-12-25T17:24:25.850Z,8.33
2022-12-25T17:27:54.763Z,7.00
2022-12-25T17:30:55.847Z,5.90
2022-12-25T17:34:19.858Z,6.57
2022-12-25T17:37:19.890Z,7.10
2022-12-25T17:40:31.893Z,6.87
2022-12-25T17:43:46.028Z,6.10
2022-12-25T17:46:57.861Z,5.93
2022-12-25T17:49:57.984Z,6.33
2022-12-25T17:53:10.855Z,5.60
2022-12-25T17:56:22.945Z,7.40
2022-12-25T17:59:49.904Z,5.67
2022-12-25T18:02:51.041Z,7.00
2022-12-25T18:06:02.860Z,6.83
2022-12-25T18:09:02.914Z,7.60
2022-12-25T18:12:14.993Z,6.30
2022-12-25T18:15:28.974Z,6.33
2022-12-25T18:18:42.371Z,6.30
2022-12-25T18:21:53.013Z,5.37
2022-12-25T18:25:04.991Z,6.73
2022-12-25T18:28:16.963Z,8.60
2022-12-25T18:31:43.075Z,6.57
2022-12-25T18:34:46.034Z,6.60
2022-12-25T18:37:57.978Z,6.57
2022-12-25T18:41:01.034Z,5.77
2022-12-25T18:44:17.071Z,5.40
2022-12-25T18:47:30.085Z,6.63
2022-12-25T18:50:54.004Z,6.77
2022-12-25T18:53:54.035Z,7.90
2022-12-25T18:57:07.454Z,10.30
2022-12-25T19:00:19.047Z,11.57
2022-12-25T19:03:48.116Z,6.40
2022-12-25T19:06:48.108Z,7.63
2022-12-25T19:10:00.306Z,8.35
2022-12-25T19:13:00.124Z,5.55
2022-12-25T19:16:24.156Z,6.20
2022-12-25T19:19:49.118Z,7.37
2022-12-25T19:23:14.192Z,6.90
2022-12-25T19:26:27.182Z,6.10
2022-12-25T19:29:39.131Z,6.15
2022-12-25T19:32:54.206Z,6.80
2022-12-25T19:36:20.239Z,8.47
2022-12-25T19:39:32.232Z,6.40
2022-12-25T19:42:45.247Z,7.60
2022-12-25T19:45:45.285Z,8.03
2022-12-25T19:49:14.233Z,8.33
2022-12-25T19:52:28.200Z,8.55
2022-12-25T19:55:40.285Z,9.40
2022-12-25T19:58:40.281Z,7.27
2022-12-25T20:01:52.510Z,7.73
2022-12-25T20:05:04.300Z,7.60
2022-12-25T20:08:17.316Z,7.87
2022-12-25T20:11:41.318Z,8.05
2022-12-25T20:14:41.311Z,12.20
2022-12-25T20:17:54.300Z,12.43
2022-12-25T20:20:54.306Z,10.27
2022-12-25T20:24:19.354Z,6.73
2022-12-25T20:27:19.389Z,14.30
2022-12-25T20:30:31.334Z,9.35
2022-12-25T20:33:31.337Z,6.95
2022-12-25T20:36:43.417Z,6.77
2022-12-25T20:39:57.485Z,7.43
2022-12-25T20:43:09.365Z,9.03
2022-12-25T20:46:09.492Z,7.40
2022-12-25T20:49:22.447Z,7.83
2022-12-25T20:52:22.424Z,7.50
2022-12-25T20:55:48.464Z,7.83
2022-12-25T20:58:48.490Z,7.57
2022-12-25T21:02:00.583Z,9.40
2022-12-25T21:05:00.530Z,7.60
2022-12-25T21:08:12.422Z,6.33
2022-12-25T21:11:26.517Z,7.97
2022-12-25T21:14:38.477Z,8.40
2022-12-25T21:17:38.556Z,8.63
2022-12-25T21:20:50.518Z,7.53
2022-12-25T21:24:02.534Z,6.67
2022-12-25T21:27:28.515Z,6.87
2022-12-25T21:30:32.661Z,7.60
2022-12-25T21:33:51.697Z,7.03
2022-12-25T21:36:51.573Z,7.43
2022-12-25T21:40:16.678Z,7.03
2022-12-25T21:43:31.613Z,7.20
2022-12-25T21:46:58.637Z,6.80
2022-12-25T21:50:16.662Z,19.50
2022-12-25T21:53:43.631Z,6.60
2022-12-25T21:56:55.638Z,7.43
2022-12-25T22:00:22.593Z,6.93
2022-12-25T22:03:46.789Z,6.97
2022-12-25T22:06:52.612Z,7.05
2022-12-25T22:10:04.667Z,9.53
2022-12-25T22:13:10.400Z,22.65
2022-12-25T22:16:42.219Z,7.17
2022-12-25T22:19:55.712Z,8.53
2022-12-25T22:23:19.758Z,8.00
2022-12-25T22:26:21.181Z,6.97
2022-12-25T22:29:31.736Z,7.05
2022-12-25T22:32:45.767Z,7.63
2022-12-25T22:35:57.782Z,8.33
2022-12-25T22:38:57.722Z,6.67
2022-12-25T22:42:21.783Z,12.00
2022-12-25T22:45:34.814Z,6.43
2022-12-25T22:49:00.754Z,7.77
2022-12-25T22:52:12.856Z,13.43
2022-12-25T22:55:40.816Z,6.50
2022-12-25T22:58:40.815Z,6.73
2022-12-25T23:01:52.967Z,6.83
2022-12-25T23:05:06.798Z,6.83
2022-12-25T23:08:19.932Z,6.27
2022-12-25T23:11:19.804Z,7.33
2022-12-25T23:14:37.824Z,6.73
2022-12-25T23:17:43.954Z,6.83
2022-12-25T23:21:15.615Z,7.67
2022-12-25T23:24:45.428Z,6.63
2022-12-25T23:28:09.868Z,7.53
2022-12-25T23:31:22.089Z,6.93
2022-12-25T23:34:45.927Z,6.63
2022-12-25T23:38:01.972Z,6.80
2022-12-25T23:41:14.974Z,7.40
2022-12-25T23:44:14.967Z,7.97
2022-12-25T23:47:40.094Z,6.57
2022-12-25T23:50:42.939Z,10.57
2022-12-25T23:54:09.034Z,7.20
2022-12-25T23:57:20.977Z,6.33
